sensor_id;sensor_type;location;lat;lon;timestamp;pressure;altitude;pressure_sealevel;temperature;humidity
63916;BME280;50094;51.356;-0.196;2023-02-21T00:00:22;101373.46;;;28.04;27.22
63916;BME280;50094;51.356;-0.196;2023-02-21T00:02:49;101372.93;;;28.02;27.17
63916;BME280;50094;51.356;-0.196;2023-02-21T00:05:17;101373.24;;;28.03;27.13
63916;BME280;50094;51.356;-0.196;2023-02-21T00:07:45;101374.95;;;27.95;27.18
63916;BME280;50094;51.356;-0.196;2023-02-21T00:10:14;101377.84;;;28.07;27.15
63916;BME280;50094;51.356;-0.196;2023-02-21T00:12:42;101379.81;;;28.38;27.07
63916;BME280;50094;51.356;-0.196;2023-02-21T00:15:10;101376.88;;;28.07;27.08
63916;BME280;50094;51.356;-0.196;2023-02-21T00:17:37;101372.30;;;28.12;27.04
63916;BME280;50094;51.356;-0.196;2023-02-21T00:20:05;101373.11;;;27.91;27.01
63916;BME280;50094;51.356;-0.196;2023-02-21T00:22:32;101372.81;;;28.44;27.02
63916;BME280;50094;51.356;-0.196;2023-02-21T00:25:00;101370.46;;;28.21;27.03
63916;BME280;50094;51.356;-0.196;2023-02-21T00:27:28;101369.75;;;28.27;27.00
63916;BME280;50094;51.356;-0.196;2023-02-21T00:29:55;101368.46;;;28.28;26.92
63916;BME280;50094;51.356;-0.196;2023-02-21T00:32:22;101365.02;;;28.28;26.85
63916;BME280;50094;51.356;-0.196;2023-02-21T00:34:48;101362.90;;;28.26;26.84
63916;BME280;50094;51.356;-0.196;2023-02-21T00:37:16;101361.55;;;28.30;26.83
63916;BME280;50094;51.356;-0.196;2023-02-21T00:39:44;101360.89;;;28.27;26.76
63916;BME280;50094;51.356;-0.196;2023-02-21T00:42:11;101359.45;;;28.15;26.74
63916;BME280;50094;51.356;-0.196;2023-02-21T00:44:38;101354.05;;;28.00;26.87
63916;BME280;50094;51.356;-0.196;2023-02-21T00:47:05;101356.14;;;27.78;27.00
63916;BME280;50094;51.356;-0.196;2023-02-21T00:49:32;101353.77;;;28.42;26.77
63916;BME280;50094;51.356;-0.196;2023-02-21T00:51:59;101348.75;;;27.98;26.67
63916;BME280;50094;51.356;-0.196;2023-02-21T00:54:26;101352.55;;;27.59;27.98
63916;BME280;50094;51.356;-0.196;2023-02-21T00:56:53;101350.87;;;28.31;29.23
63916;BME280;50094;51.356;-0.196;2023-02-21T00:59:20;101352.83;;;28.12;30.48
63916;BME280;50094;51.356;-0.196;2023-02-21T01:01:47;101353.80;;;28.47;31.50
63916;BME280;50094;51.356;-0.196;2023-02-21T01:04:14;101347.83;;;28.74;32.15
63916;BME280;50094;51.356;-0.196;2023-02-21T01:06:41;101344.04;;;29.03;32.76
63916;BME280;50094;51.356;-0.196;2023-02-21T01:09:08;101345.64;;;28.92;32.68
63916;BME280;50094;51.356;-0.196;2023-02-21T01:11:36;101342.03;;;29.28;33.69
63916;BME280;50094;51.356;-0.196;2023-02-21T01:14:04;101337.68;;;29.29;33.91
63916;BME280;50094;51.356;-0.196;2023-02-21T01:16:32;101332.35;;;29.50;34.21
63916;BME280;50094;51.356;-0.196;2023-02-21T01:19:00;101332.00;;;29.53;34.22
63916;BME280;50094;51.356;-0.196;2023-02-21T01:21:27;101333.17;;;29.61;34.23
63916;BME280;50094;51.356;-0.196;2023-02-21T01:23:55;101331.50;;;29.53;34.34
63916;BME280;50094;51.356;-0.196;2023-02-21T01:26:22;101329.12;;;29.87;34.44
63916;BME280;50094;51.356;-0.196;2023-02-21T01:28:49;101326.89;;;30.29;34.47
63916;BME280;50094;51.356;-0.196;2023-02-21T01:31:17;101326.08;;;30.13;34.28
63916;BME280;50094;51.356;-0.196;2023-02-21T01:33:44;101325.66;;;30.19;34.32
63916;BME280;50094;51.356;-0.196;2023-02-21T01:36:12;101322.44;;;30.26;34.10
63916;BME280;50094;51.356;-0.196;2023-02-21T01:38:40;101319.81;;;30.05;34.22
63916;BME280;50094;51.356;-0.196;2023-02-21T01:41:07;101314.87;;;30.16;34.28
63916;BME280;50094;51.356;-0.196;2023-02-21T01:43:35;101311.58;;;30.25;34.29
63916;BME280;50094;51.356;-0.196;2023-02-21T01:46:03;101304.70;;;30.31;34.05
63916;BME280;50094;51.356;-0.196;2023-02-21T01:48:32;101304.04;;;30.39;34.12
63916;BME280;50094;51.356;-0.196;2023-02-21T01:51:02;101299.85;;;30.43;34.13
63916;BME280;50094;51.356;-0.196;2023-02-21T01:53:29;101298.30;;;30.73;34.11
63916;BME280;50094;51.356;-0.196;2023-02-21T01:55:59;101294.54;;;30.58;34.01
63916;BME280;50094;51.356;-0.196;2023-02-21T01:58:29;101291.52;;;30.66;33.95
63916;BME280;50094;51.356;-0.196;2023-02-21T02:00:57;101291.60;;;30.74;33.83
63916;BME280;50094;51.356;-0.196;2023-02-21T02:03:25;101287.82;;;30.82;33.67
63916;BME280;50094;51.356;-0.196;2023-02-21T02:05:54;101285.00;;;30.59;33.57
63916;BME280;50094;51.356;-0.196;2023-02-21T02:08:26;101284.46;;;30.91;33.52
63916;BME280;50094;51.356;-0.196;2023-02-21T02:11:08;101281.30;;;30.96;33.49
63916;BME280;50094;51.356;-0.196;2023-02-21T02:13:53;101281.05;;;30.72;33.55
63916;BME280;50094;51.356;-0.196;2023-02-21T02:16:31;101278.07;;;31.08;33.40
63916;BME280;50094;51.356;-0.196;2023-02-21T02:19:18;101276.41;;;31.11;33.35
63916;BME280;50094;51.356;-0.196;2023-02-21T02:22:14;101271.87;;;31.17;33.31
63916;BME280;50094;51.356;-0.196;2023-02-21T02:25:01;101269.19;;;31.26;33.20
63916;BME280;50094;51.356;-0.196;2023-02-21T02:28:24;101262.36;;;31.31;33.13
63916;BME280;50094;51.356;-0.196;2023-02-21T02:32:15;101253.76;;;31.09;33.05
63916;BME280;50094;51.356;-0.196;2023-02-21T02:34:50;101254.59;;;31.15;32.91
63916;BME280;50094;51.356;-0.196;2023-02-21T02:37:22;101255.06;;;31.46;32.87
63916;BME280;50094;51.356;-0.196;2023-02-21T02:39:58;101251.89;;;31.22;32.87
63916;BME280;50094;51.356;-0.196;2023-02-21T02:42:41;101249.10;;;31.53;32.80
63916;BME280;50094;51.356;-0.196;2023-02-21T02:45:18;101244.03;;;31.30;32.80
63916;BME280;50094;51.356;-0.196;2023-02-21T02:47:54;101243.87;;;31.42;32.61
63916;BME280;50094;51.356;-0.196;2023-02-21T02:50:25;101244.59;;;31.73;32.51
63916;BME280;50094;51.356;-0.196;2023-02-21T02:52:54;101243.36;;;31.74;32.54
63916;BME280;50094;51.356;-0.196;2023-02-21T02:55:30;101241.21;;;31.49;32.44
63916;BME280;50094;51.356;-0.196;2023-02-21T02:58:01;101234.20;;;31.76;32.38
63916;BME280;50094;51.356;-0.196;2023-02-21T03:00:30;101233.85;;;31.24;32.28
63916;BME280;50094;51.356;-0.196;2023-02-21T03:03:12;101231.28;;;31.43;32.35
63916;BME280;50094;51.356;-0.196;2023-02-21T03:05:54;101230.37;;;31.71;32.44
63916;BME280;50094;51.356;-0.196;2023-02-21T03:08:34;101223.61;;;31.41;32.31
63916;BME280;50094;51.356;-0.196;2023-02-21T03:11:09;101222.35;;;31.23;32.41
63916;BME280;50094;51.356;-0.196;2023-02-21T03:13:43;101220.76;;;31.26;32.30
63916;BME280;50094;51.356;-0.196;2023-02-21T03:16:17;101218.68;;;31.52;32.34
63916;BME280;50094;51.356;-0.196;2023-02-21T03:18:48;101214.90;;;31.38;32.31
63916;BME280;50094;51.356;-0.196;2023-02-21T03:21:19;101214.64;;;31.46;32.24
63916;BME280;50094;51.356;-0.196;2023-02-21T03:23:50;101217.63;;;31.54;32.05
63916;BME280;50094;51.356;-0.196;2023-02-21T03:26:18;101215.82;;;31.58;32.10
63916;BME280;50094;51.356;-0.196;2023-02-21T03:28:47;101212.63;;;31.63;32.16
63916;BME280;50094;51.356;-0.196;2023-02-21T03:31:16;101214.76;;;31.97;31.98
63916;BME280;50094;51.356;-0.196;2023-02-21T03:33:45;101212.75;;;31.85;31.93
63916;BME280;50094;51.356;-0.196;2023-02-21T03:36:13;101212.95;;;31.88;31.83
63916;BME280;50094;51.356;-0.196;2023-02-21T03:38:40;101210.01;;;31.90;31.88
63916;BME280;50094;51.356;-0.196;2023-02-21T03:41:09;101206.25;;;31.90;31.94
63916;BME280;50094;51.356;-0.196;2023-02-21T03:43:37;101210.62;;;31.82;31.78
63916;BME280;50094;51.356;-0.196;2023-02-21T03:46:04;101208.48;;;31.71;32.10
63916;BME280;50094;51.356;-0.196;2023-02-21T03:48:32;101207.71;;;31.64;31.96
63916;BME280;50094;51.356;-0.196;2023-02-21T03:50:59;101205.86;;;31.55;32.05
63916;BME280;50094;51.356;-0.196;2023-02-21T03:53:27;101208.27;;;31.72;32.07
63916;BME280;50094;51.356;-0.196;2023-02-21T03:55:54;101207.60;;;31.50;32.21
63916;BME280;50094;51.356;-0.196;2023-02-21T03:58:22;101204.55;;;31.72;32.18
63916;BME280;50094;51.356;-0.196;2023-02-21T04:00:50;101200.20;;;31.95;32.10
63916;BME280;50094;51.356;-0.196;2023-02-21T04:03:17;101199.97;;;31.49;32.12
63916;BME280;50094;51.356;-0.196;2023-02-21T04:05:45;101200.99;;;31.76;32.03
63916;BME280;50094;51.356;-0.196;2023-02-21T04:08:13;101201.01;;;31.62;32.11
63916;BME280;50094;51.356;-0.196;2023-02-21T04:10:40;101200.77;;;31.64;31.99
63916;BME280;50094;51.356;-0.196;2023-02-21T04:13:07;101197.30;;;31.87;32.27
63916;BME280;50094;51.356;-0.196;2023-02-21T04:15:35;101195.46;;;31.62;32.10
63916;BME280;50094;51.356;-0.196;2023-02-21T04:18:03;101193.21;;;31.58;32.22
63916;BME280;50094;51.356;-0.196;2023-02-21T04:20:30;101191.92;;;31.63;32.14
63916;BME280;50094;51.356;-0.196;2023-02-21T04:22:58;101186.96;;;31.63;32.04
63916;BME280;50094;51.356;-0.196;2023-02-21T04:25:25;101183.47;;;31.64;31.98
63916;BME280;50094;51.356;-0.196;2023-02-21T04:27:53;101180.74;;;31.71;31.89
63916;BME280;50094;51.356;-0.196;2023-02-21T04:30:20;101185.06;;;31.77;31.74
63916;BME280;50094;51.356;-0.196;2023-02-21T04:32:48;101185.18;;;31.81;31.74
63916;BME280;50094;51.356;-0.196;2023-02-21T04:35:15;101184.11;;;31.85;31.78
63916;BME280;50094;51.356;-0.196;2023-02-21T04:37:43;101183.81;;;31.98;31.85
63916;BME280;50094;51.356;-0.196;2023-02-21T04:40:11;101181.66;;;32.15;31.83
63916;BME280;50094;51.356;-0.196;2023-02-21T04:42:39;101180.25;;;32.27;31.68
63916;BME280;50094;51.356;-0.196;2023-02-21T04:45:07;101183.48;;;32.17;31.58
63916;BME280;50094;51.356;-0.196;2023-02-21T04:47:34;101182.15;;;32.27;31.39
63916;BME280;50094;51.356;-0.196;2023-02-21T04:50:02;101182.81;;;32.35;31.27
63916;BME280;50094;51.356;-0.196;2023-02-21T04:52:29;101181.16;;;32.49;31.11
63916;BME280;50094;51.356;-0.196;2023-02-21T04:54:57;101175.79;;;32.57;30.94
63916;BME280;50094;51.356;-0.196;2023-02-21T04:57:24;101176.14;;;32.63;30.80
63916;BME280;50094;51.356;-0.196;2023-02-21T04:59:56;101173.20;;;32.88;30.76
63916;BME280;50094;51.356;-0.196;2023-02-21T05:02:24;101171.84;;;32.46;30.67
63916;BME280;50094;51.356;-0.196;2023-02-21T05:04:51;101173.40;;;32.85;30.51
63916;BME280;50094;51.356;-0.196;2023-02-21T05:07:19;101173.78;;;32.67;30.45
63916;BME280;50094;51.356;-0.196;2023-02-21T05:09:46;101171.59;;;32.71;30.42
63916;BME280;50094;51.356;-0.196;2023-02-21T05:12:14;101173.34;;;32.99;30.27
63916;BME280;50094;51.356;-0.196;2023-02-21T05:14:41;101169.17;;;32.74;30.19
63916;BME280;50094;51.356;-0.196;2023-02-21T05:17:09;101168.69;;;33.05;30.12
63916;BME280;50094;51.356;-0.196;2023-02-21T05:19:36;101163.17;;;32.84;30.07
63916;BME280;50094;51.356;-0.196;2023-02-21T05:22:04;101160.96;;;32.89;30.05
63916;BME280;50094;51.356;-0.196;2023-02-21T05:24:32;101158.22;;;33.22;29.94
63916;BME280;50094;51.356;-0.196;2023-02-21T05:26:59;101156.29;;;33.24;29.84
63916;BME280;50094;51.356;-0.196;2023-02-21T05:29:26;101153.38;;;32.93;29.83
63916;BME280;50094;51.356;-0.196;2023-02-21T05:31:54;101154.01;;;33.22;29.70
63916;BME280;50094;51.356;-0.196;2023-02-21T05:34:22;101151.60;;;32.81;29.72
63916;BME280;50094;51.356;-0.196;2023-02-21T05:36:49;101148.28;;;33.31;29.64
63916;BME280;50094;51.356;-0.196;2023-02-21T05:39:17;101150.71;;;33.03;29.71
63916;BME280;50094;51.356;-0.196;2023-02-21T05:41:47;101146.22;;;33.03;29.69
63916;BME280;50094;51.356;-0.196;2023-02-21T05:44:15;101146.90;;;33.01;29.71
63916;BME280;50094;51.356;-0.196;2023-02-21T05:46:43;101145.21;;;33.26;29.79
63916;BME280;50094;51.356;-0.196;2023-02-21T05:49:11;101148.90;;;32.99;29.81
63916;BME280;50094;51.356;-0.196;2023-02-21T05:51:41;101146.45;;;33.00;29.79
63916;BME280;50094;51.356;-0.196;2023-02-21T05:54:12;101148.05;;;32.96;29.85
63916;BME280;50094;51.356;-0.196;2023-02-21T05:56:40;101147.59;;;33.01;29.85
63916;BME280;50094;51.356;-0.196;2023-02-21T05:59:08;101145.57;;;32.75;30.01
63916;BME280;50094;51.356;-0.196;2023-02-21T06:01:36;101145.69;;;32.97;29.99
63916;BME280;50094;51.356;-0.196;2023-02-21T06:04:04;101146.98;;;32.94;30.08
63916;BME280;50094;51.356;-0.196;2023-02-21T06:06:31;101145.81;;;32.96;30.00
63916;BME280;50094;51.356;-0.196;2023-02-21T06:08:59;101144.71;;;32.54;29.99
63916;BME280;50094;51.356;-0.196;2023-02-21T06:11:27;101147.53;;;33.05;29.94
63916;BME280;50094;51.356;-0.196;2023-02-21T06:13:56;101149.54;;;33.03;29.88
63916;BME280;50094;51.356;-0.196;2023-02-21T06:16:24;101150.17;;;33.08;29.96
63916;BME280;50094;51.356;-0.196;2023-02-21T06:18:53;101152.00;;;33.11;29.89
63916;BME280;50094;51.356;-0.196;2023-02-21T06:21:21;101151.76;;;33.10;29.88
63916;BME280;50094;51.356;-0.196;2023-02-21T06:23:49;101152.19;;;33.06;29.92
63916;BME280;50094;51.356;-0.196;2023-02-21T06:26:17;101150.53;;;33.07;29.79
63916;BME280;50094;51.356;-0.196;2023-02-21T06:28:45;101153.94;;;33.03;30.01
63916;BME280;50094;51.356;-0.196;2023-02-21T06:31:12;101152.32;;;33.01;30.03
63916;BME280;50094;51.356;-0.196;2023-02-21T06:33:39;101153.89;;;32.89;29.78
63916;BME280;50094;51.356;-0.196;2023-02-21T06:36:11;101153.85;;;32.70;29.52
63916;BME280;50094;51.356;-0.196;2023-02-21T06:38:38;101152.03;;;32.65;29.58
63916;BME280;50094;51.356;-0.196;2023-02-21T06:41:05;101154.08;;;32.37;29.49
63916;BME280;50094;51.356;-0.196;2023-02-21T06:43:32;101159.49;;;32.12;29.66
63916;BME280;50094;51.356;-0.196;2023-02-21T06:46:00;101161.21;;;31.84;29.56
63916;BME280;50094;51.356;-0.196;2023-02-21T06:48:27;101158.14;;;32.09;29.73
63916;BME280;50094;51.356;-0.196;2023-02-21T06:50:55;101155.05;;;31.62;29.87
63916;BME280;50094;51.356;-0.196;2023-02-21T06:53:22;101158.48;;;31.39;29.95
63916;BME280;50094;51.356;-0.196;2023-02-21T06:55:50;101158.74;;;31.44;29.98
63916;BME280;50094;51.356;-0.196;2023-02-21T06:58:18;101158.43;;;31.25;30.07
63916;BME280;50094;51.356;-0.196;2023-02-21T07:00:45;101160.74;;;31.03;30.18
63916;BME280;50094;51.356;-0.196;2023-02-21T07:03:13;101160.65;;;30.93;30.18
63916;BME280;50094;51.356;-0.196;2023-02-21T07:05:40;101160.21;;;30.97;30.15
63916;BME280;50094;51.356;-0.196;2023-02-21T07:08:08;101161.89;;;30.80;30.18
63916;BME280;50094;51.356;-0.196;2023-02-21T07:10:35;101161.62;;;30.41;30.20
63916;BME280;50094;51.356;-0.196;2023-02-21T07:13:03;101163.35;;;30.47;30.18
63916;BME280;50094;51.356;-0.196;2023-02-21T07:15:31;101161.56;;;30.58;30.30
63916;BME280;50094;51.356;-0.196;2023-02-21T07:17:58;101156.75;;;30.21;30.34
63916;BME280;50094;51.356;-0.196;2023-02-21T07:20:26;101155.01;;;29.88;30.38
63916;BME280;50094;51.356;-0.196;2023-02-21T07:22:53;101160.96;;;30.22;30.42
63916;BME280;50094;51.356;-0.196;2023-02-21T07:25:22;101158.92;;;29.87;30.37
63916;BME280;50094;51.356;-0.196;2023-02-21T07:27:49;101159.68;;;30.01;30.39
63916;BME280;50094;51.356;-0.196;2023-02-21T07:30:16;101161.87;;;29.63;30.43
63916;BME280;50094;51.356;-0.196;2023-02-21T07:32:44;101166.97;;;29.81;30.48
63916;BME280;50094;51.356;-0.196;2023-02-21T07:35:12;101165.53;;;29.68;30.57
63916;BME280;50094;51.356;-0.196;2023-02-21T07:37:39;101163.86;;;29.63;30.55
63916;BME280;50094;51.356;-0.196;2023-02-21T07:40:06;101167.12;;;29.31;30.54
63916;BME280;50094;51.356;-0.196;2023-02-21T07:42:33;101165.12;;;29.48;30.54
63916;BME280;50094;51.356;-0.196;2023-02-21T07:45:01;101163.26;;;29.31;30.62
63916;BME280;50094;51.356;-0.196;2023-02-21T07:47:29;101162.07;;;29.12;30.72
63916;BME280;50094;51.356;-0.196;2023-02-21T07:49:56;101161.41;;;29.18;30.67
63916;BME280;50094;51.356;-0.196;2023-02-21T07:52:24;101163.47;;;29.54;30.71
63916;BME280;50094;51.356;-0.196;2023-02-21T07:54:51;101165.05;;;29.27;30.75
63916;BME280;50094;51.356;-0.196;2023-02-21T07:57:19;101163.87;;;29.14;30.77
63916;BME280;50094;51.356;-0.196;2023-02-21T07:59:47;101163.90;;;29.07;30.79
63916;BME280;50094;51.356;-0.196;2023-02-21T08:02:15;101163.86;;;28.77;30.83
63916;BME280;50094;51.356;-0.196;2023-02-21T08:04:42;101165.53;;;29.12;30.86
63916;BME280;50094;51.356;-0.196;2023-02-21T08:07:09;101169.60;;;28.64;30.82
63916;BME280;50094;51.356;-0.196;2023-02-21T08:09:36;101172.91;;;28.66;30.75
63916;BME280;50094;51.356;-0.196;2023-02-21T08:12:04;101169.95;;;29.10;30.70
63916;BME280;50094;51.356;-0.196;2023-02-21T08:14:31;101166.80;;;28.64;30.65
63916;BME280;50094;51.356;-0.196;2023-02-21T08:16:58;101164.27;;;29.02;30.64
63916;BME280;50094;51.356;-0.196;2023-02-21T08:19:26;101166.52;;;28.47;30.68
63916;BME280;50094;51.356;-0.196;2023-02-21T08:21:53;101169.32;;;28.72;30.64
63916;BME280;50094;51.356;-0.196;2023-02-21T08:24:21;101171.73;;;28.93;30.61
63916;BME280;50094;51.356;-0.196;2023-02-21T08:26:49;101172.62;;;28.86;30.59
63916;BME280;50094;51.356;-0.196;2023-02-21T08:29:15;101174.10;;;28.83;30.58
63916;BME280;50094;51.356;-0.196;2023-02-21T08:31:43;101174.77;;;28.55;30.55
63916;BME280;50094;51.356;-0.196;2023-02-21T08:34:11;101172.14;;;28.47;30.57
63916;BME280;50094;51.356;-0.196;2023-02-21T08:36:40;101176.64;;;28.68;30.52
63916;BME280;50094;51.356;-0.196;2023-02-21T08:39:08;101176.32;;;28.61;30.48
63916;BME280;50094;51.356;-0.196;2023-02-21T08:41:36;101178.23;;;28.56;30.49
63916;BME280;50094;51.356;-0.196;2023-02-21T08:44:04;101183.05;;;28.51;30.46
63916;BME280;50094;51.356;-0.196;2023-02-21T08:46:30;101182.60;;;28.48;30.46
63916;BME280;50094;51.356;-0.196;2023-02-21T08:48:57;101181.37;;;28.41;30.45
63916;BME280;50094;51.356;-0.196;2023-02-21T08:51:25;101180.78;;;28.36;30.47
63916;BME280;50094;51.356;-0.196;2023-02-21T08:53:53;101179.16;;;28.32;30.47
63916;BME280;50094;51.356;-0.196;2023-02-21T08:56:21;101178.32;;;28.28;30.47
63916;BME280;50094;51.356;-0.196;2023-02-21T08:58:49;101178.36;;;28.28;30.44
63916;BME280;50094;51.356;-0.196;2023-02-21T09:01:16;101181.68;;;28.31;30.40
63916;BME280;50094;51.356;-0.196;2023-02-21T09:03:44;101181.01;;;28.27;30.38
63916;BME280;50094;51.356;-0.196;2023-02-21T09:06:11;101178.50;;;28.49;30.36
63916;BME280;50094;51.356;-0.196;2023-02-21T09:08:38;101175.57;;;28.69;30.33
63916;BME280;50094;51.356;-0.196;2023-02-21T09:11:06;101173.79;;;28.15;30.32
63916;BME280;50094;51.356;-0.196;2023-02-21T09:13:34;101174.88;;;28.14;30.27
63916;BME280;50094;51.356;-0.196;2023-02-21T09:16:02;101173.03;;;28.10;30.29
63916;BME280;50094;51.356;-0.196;2023-02-21T09:18:30;101172.32;;;28.04;30.31
63916;BME280;50094;51.356;-0.196;2023-02-21T09:20:58;101173.80;;;28.04;30.27
63916;BME280;50094;51.356;-0.196;2023-02-21T09:23:28;101166.02;;;27.99;30.26
63916;BME280;50094;51.356;-0.196;2023-02-21T09:25:56;101169.18;;;28.23;30.25
63916;BME280;50094;51.356;-0.196;2023-02-21T09:28:24;101168.76;;;27.95;30.19
63916;BME280;50094;51.356;-0.196;2023-02-21T09:30:51;101167.41;;;27.91;30.19
63916;BME280;50094;51.356;-0.196;2023-02-21T09:33:18;101162.62;;;27.90;30.14
63916;BME280;50094;51.356;-0.196;2023-02-21T09:35:45;101162.21;;;28.35;30.14
63916;BME280;50094;51.356;-0.196;2023-02-21T09:38:13;101161.29;;;27.76;30.17
63916;BME280;50094;51.356;-0.196;2023-02-21T09:40:41;101159.06;;;28.06;30.10
63916;BME280;50094;51.356;-0.196;2023-02-21T09:43:12;101154.99;;;28.03;30.11
63916;BME280;50094;51.356;-0.196;2023-02-21T09:45:42;101152.97;;;28.13;30.15
63916;BME280;50094;51.356;-0.196;2023-02-21T09:48:13;101150.83;;;27.70;30.13
63916;BME280;50094;51.356;-0.196;2023-02-21T09:50:43;101147.34;;;27.88;30.16
63916;BME280;50094;51.356;-0.196;2023-02-21T09:53:16;101149.06;;;27.62;30.15
63916;BME280;50094;51.356;-0.196;2023-02-21T09:55:45;101147.18;;;27.82;30.14
63916;BME280;50094;51.356;-0.196;2023-02-21T09:58:17;101141.85;;;27.81;30.14
63916;BME280;50094;51.356;-0.196;2023-02-21T10:00:46;101143.55;;;27.76;30.13
63916;BME280;50094;51.356;-0.196;2023-02-21T10:03:23;101140.46;;;27.74;30.13
63916;BME280;50094;51.356;-0.196;2023-02-21T10:05:57;101141.40;;;27.75;30.12
63916;BME280;50094;51.356;-0.196;2023-02-21T10:08:35;101139.20;;;27.66;30.13
63916;BME280;50094;51.356;-0.196;2023-02-21T10:11:20;101138.06;;;27.72;30.09
63916;BME280;50094;51.356;-0.196;2023-02-21T10:13:53;101139.36;;;27.65;30.07
63916;BME280;50094;51.356;-0.196;2023-02-21T10:16:26;101139.32;;;27.57;30.08
63916;BME280;50094;51.356;-0.196;2023-02-21T10:19:02;101135.39;;;27.47;30.10
63916;BME280;50094;51.356;-0.196;2023-02-21T10:21:35;101135.88;;;27.39;30.13
63916;BME280;50094;51.356;-0.196;2023-02-21T10:24:11;101133.99;;;27.57;30.14
63916;BME280;50094;51.356;-0.196;2023-02-21T10:26:41;101133.87;;;27.57;30.13
63916;BME280;50094;51.356;-0.196;2023-02-21T10:29:19;101135.71;;;27.40;30.10
63916;BME280;50094;51.356;-0.196;2023-02-21T10:31:47;101129.80;;;27.38;30.07
63916;BME280;50094;51.356;-0.196;2023-02-21T10:34:23;101125.34;;;27.40;30.11
63916;BME280;50094;51.356;-0.196;2023-02-21T10:36:52;101121.66;;;27.50;30.08
63916;BME280;50094;51.356;-0.196;2023-02-21T10:39:24;101127.56;;;27.04;30.05
63916;BME280;50094;51.356;-0.196;2023-02-21T10:41:54;101124.95;;;27.45;30.05
63916;BME280;50094;51.356;-0.196;2023-02-21T10:44:25;101125.33;;;27.28;30.02
63916;BME280;50094;51.356;-0.196;2023-02-21T10:46:57;101125.52;;;27.17;30.04
63916;BME280;50094;51.356;-0.196;2023-02-21T10:49:29;101129.60;;;27.32;30.04
63916;BME280;50094;51.356;-0.196;2023-02-21T10:52:06;101127.81;;;27.30;30.05
63916;BME280;50094;51.356;-0.196;2023-02-21T10:54:36;101131.61;;;27.08;30.02
63916;BME280;50094;51.356;-0.196;2023-02-21T10:57:06;101132.24;;;27.28;29.97
63916;BME280;50094;51.356;-0.196;2023-02-21T10:59:35;101128.98;;;27.28;29.93
63916;BME280;50094;51.356;-0.196;2023-02-21T11:02:27;101127.52;;;27.07;29.94
63916;BME280;50094;51.356;-0.196;2023-02-21T11:04:55;101126.99;;;27.28;29.92
63916;BME280;50094;51.356;-0.196;2023-02-21T11:07:33;101128.44;;;27.05;29.87
63916;BME280;50094;51.356;-0.196;2023-02-21T11:10:01;101132.02;;;27.29;29.85
63916;BME280;50094;51.356;-0.196;2023-02-21T11:12:28;101133.32;;;27.26;29.83
63916;BME280;50094;51.356;-0.196;2023-02-21T11:15:14;101131.07;;;27.14;29.87
63916;BME280;50094;51.356;-0.196;2023-02-21T11:17:43;101130.44;;;27.24;29.83
63916;BME280;50094;51.356;-0.196;2023-02-21T11:20:17;101128.56;;;26.98;29.80
63916;BME280;50094;51.356;-0.196;2023-02-21T11:22:47;101125.08;;;27.20;29.76
63916;BME280;50094;51.356;-0.196;2023-02-21T11:25:21;101123.95;;;27.20;29.73
63916;BME280;50094;51.356;-0.196;2023-02-21T11:28:16;101124.89;;;26.92;29.72
63916;BME280;50094;51.356;-0.196;2023-02-21T11:30:49;101120.82;;;27.10;29.69
63916;BME280;50094;51.356;-0.196;2023-02-21T11:33:19;101117.88;;;27.15;29.67
63916;BME280;50094;51.356;-0.196;2023-02-21T11:35:48;101115.19;;;27.06;29.71
63916;BME280;50094;51.356;-0.196;2023-02-21T11:38:34;101107.40;;;27.10;29.66
63916;BME280;50094;51.356;-0.196;2023-02-21T11:41:02;101103.85;;;27.08;29.66
63916;BME280;50094;51.356;-0.196;2023-02-21T11:43:45;101097.69;;;27.30;29.66
63916;BME280;50094;51.356;-0.196;2023-02-21T11:46:17;101092.31;;;26.89;29.76
63916;BME280;50094;51.356;-0.196;2023-02-21T11:48:55;101088.08;;;26.89;29.76
63916;BME280;50094;51.356;-0.196;2023-02-21T11:51:32;101089.67;;;26.82;29.80
63916;BME280;50094;51.356;-0.196;2023-02-21T11:54:02;101080.89;;;26.84;29.80
63916;BME280;50094;51.356;-0.196;2023-02-21T11:56:37;101077.61;;;26.82;29.79
63916;BME280;50094;51.356;-0.196;2023-02-21T11:59:14;101070.65;;;26.79;29.78
63916;BME280;50094;51.356;-0.196;2023-02-21T12:01:49;101060.84;;;26.81;29.78
63916;BME280;50094;51.356;-0.196;2023-02-21T12:04:38;101057.61;;;26.78;29.79
63916;BME280;50094;51.356;-0.196;2023-02-21T12:07:16;101050.05;;;26.78;29.79
63916;BME280;50094;51.356;-0.196;2023-02-21T12:09:47;101043.75;;;26.60;29.75
63916;BME280;50094;51.356;-0.196;2023-02-21T12:12:29;101039.18;;;26.81;29.73
63916;BME280;50094;51.356;-0.196;2023-02-21T12:15:05;101038.20;;;26.57;29.72
63916;BME280;50094;51.356;-0.196;2023-02-21T12:18:22;101035.61;;;26.82;29.67
63916;BME280;50094;51.356;-0.196;2023-02-21T12:21:07;101033.97;;;26.80;29.66
63916;BME280;50094;51.356;-0.196;2023-02-21T12:23:45;101040.93;;;26.77;29.65
63916;BME280;50094;51.356;-0.196;2023-02-21T12:26:25;101038.29;;;26.75;29.63
63916;BME280;50094;51.356;-0.196;2023-02-21T12:29:08;101036.53;;;26.68;29.64
63916;BME280;50094;51.356;-0.196;2023-02-21T12:31:50;101033.18;;;26.62;29.65
63916;BME280;50094;51.356;-0.196;2023-02-21T12:34:34;101024.26;;;26.64;29.64
63916;BME280;50094;51.356;-0.196;2023-02-21T12:37:14;101024.75;;;26.62;29.62
63916;BME280;50094;51.356;-0.196;2023-02-21T12:39:55;101017.67;;;26.88;29.62
63916;BME280;50094;51.356;-0.196;2023-02-21T12:42:39;101011.50;;;26.57;29.59
63916;BME280;50094;51.356;-0.196;2023-02-21T12:45:22;101004.23;;;26.54;29.61
63916;BME280;50094;51.356;-0.196;2023-02-21T12:47:59;101007.93;;;26.79;29.60
63916;BME280;50094;51.356;-0.196;2023-02-21T12:50:34;101006.52;;;26.82;29.57
63916;BME280;50094;51.356;-0.196;2023-02-21T12:53:06;101005.97;;;26.50;29.60
63916;BME280;50094;51.356;-0.196;2023-02-21T12:55:38;100995.94;;;26.56;29.57
63916;BME280;50094;51.356;-0.196;2023-02-21T12:58:14;100995.08;;;26.57;29.52